Terminal Aerodrome Forecast
Issued by NWS Upton, NY

Home | Current Version | Previous Version | Text Only | Print | Product List | Glossary On
Versions: 1 2 3 4 5 6 7 8 9 10 11 12 13 14 15 16 17 18 19 20 21 22 23 24 25 26
681
FTUS41 KOKX 240218 AAA
TAFEWR
TAF AMD
KEWR 240218Z 2402/2506 15006KT P6SM BKN250
     FM240600 VRB03KT P6SM BKN250
     FM241500 09007KT P6SM SCT120 OVC200
     FM241800 10009KT P6SM BKN100
     FM242200 10009KT P6SM VCSH SCT050 BKN080
     FM250300 08008KT P6SM VCSH OVC050=

USA.gov is the U.S. government's official web portal to all federal, state and local government web resources and services.